Time;durP1;ratioP1;P1;durP2;ratioP2;P2;SDS_P1;SDS_P2;PMS_P1;PMS_P2;Temp;Humidity;BMP_temperature;BMP_pressure;BME280_temperature;BME280_humidity;BME280_pressure;Samples;Min_cycle;Max_cycle;Signal;HPM_P1;HPM_P2
2022/12/11 00:01:43;;;;;;;17.23;8.70;;;;;;;2.10;73.68;99056.97;4792143;29;20043;-83
2022/12/11 00:04:09;;;;;;;18.75;8.50;;;;;;;1.91;74.10;99063.56;4763208;30;20096;-80
2022/12/11 00:06:35;;;;;;;19.02;9.23;;;;;;;2.17;74.10;99092.97;4768124;30;20046;-82
2022/12/11 00:09:40;;;;;;;19.70;9.70;;;;;;;1.41;73.48;98971.34;4768962;30;20054;-83
2022/12/11 00:12:30;;;;;;;14.75;7.68;;;;;;;1.44;74.16;98932.91;4780772;30;20134;-82
2022/12/11 00:14:56;;;;;;;17.00;8.13;;;;;;;2.22;74.27;99058.81;4763611;30;20059;-80
2022/12/11 00:17:22;;;;;;;14.88;7.70;;;;;;;2.64;73.96;99113.28;4773831;30;20074;-82
2022/12/11 00:19:49;;;;;;;17.35;8.18;;;;;;;2.26;73.69;99018.66;4786093;30;20052;-81
2022/12/11 00:22:15;;;;;;;14.68;8.13;;;;;;;3.03;74.01;99136.00;4764012;30;20082;-83
2022/12/11 00:24:41;;;;;;;17.50;8.98;;;;;;;3.21;73.74;99161.91;4773446;30;20048;-81
2022/12/11 00:27:10;;;;;;;22.05;8.00;;;;;;;2.34;73.06;99032.44;4779274;30;20047;-81
2022/12/11 00:29:39;;;;;;;15.88;7.95;;;;;;;2.80;73.10;99123.75;4775864;30;20151;-82
2022/12/11 00:32:05;;;;;;;23.58;9.25;;;;;;;2.38;72.24;99097.56;4756264;30;20047;-82
2022/12/11 00:34:31;;;;;;;24.15;9.82;;;;;;;2.11;73.52;99035.56;4756384;30;20051;-82
2022/12/11 00:36:57;;;;;;;21.83;10.57;;;;;;;1.47;73.25;98953.47;4770468;30;20565;-83
2022/12/11 00:39:24;;;;;;;21.30;9.57;;;;;;;2.69;73.41;99134.78;4770815;30;20091;-84
2022/12/11 00:41:52;;;;;;;19.10;9.23;;;;;;;2.89;73.27;99154.69;4755926;30;20056;-82
2022/12/11 00:44:19;;;;;;;16.40;8.57;;;;;;;2.54;73.68;99071.22;4755646;30;20055;-82
2022/12/11 00:46:45;;;;;;;19.48;9.15;;;;;;;3.00;73.27;99139.41;4774465;30;20146;-84
2022/12/11 00:49:11;;;;;;;18.52;9.05;;;;;;;2.30;73.29;99015.31;4758358;30;20047;-82
2022/12/11 00:51:37;;;;;;;18.05;8.48;;;;;;;1.96;72.63;98963.53;4774981;30;20047;-81
2022/12/11 00:54:05;;;;;;;16.52;8.10;;;;;;;2.54;73.07;99045.53;4775008;30;20059;-83
2022/12/11 00:56:33;;;;;;;110.13;12.23;;;;;;;3.27;72.76;99176.56;4778197;30;20100;-81
2022/12/11 00:58:59;;;;;;;21.17;9.15;;;;;;;2.69;73.29;99096.22;4789625;30;20051;-81
2022/12/11 01:01:25;;;;;;;32.75;9.80;;;;;;;3.03;72.37;99136.88;4760197;30;20039;-82
2022/12/11 01:03:53;;;;;;;28.55;9.35;;;;;;;2.70;72.54;99090.25;4769510;30;20059;-81
2022/12/11 01:06:23;;;;;;;21.23;8.70;;;;;;;3.26;72.78;99162.81;4770997;30;20043;-82
2022/12/11 01:11:36;;;;;;;26.38;8.60;;;;;;;3.23;72.67;99165.34;4768221;30;20036;-82
2022/12/11 01:14:02;;;;;;;83.20;11.43;;;;;;;2.84;72.10;99110.97;4765793;30;20080;-81
2022/12/11 01:16:29;;;;;;;32.70;10.02;;;;;;;3.01;71.71;99138.56;4736151;30;20040;-79
2022/12/11 01:18:56;;;;;;;24.20;8.80;;;;;;;2.84;72.59;99095.56;4752838;30;20056;-82
2022/12/11 01:21:23;;;;;;;33.15;9.60;;;;;;;2.45;72.22;99016.31;4753346;30;20044;-83
2022/12/11 01:23:50;;;;;;;24.77;9.50;;;;;;;3.02;72.40;99124.88;4753628;30;20044;-82
2022/12/11 01:26:16;;;;;;;21.15;8.65;;;;;;;3.38;72.27;99166.38;4753625;30;20199;-83
2022/12/11 01:28:43;;;;;;;24.83;8.93;;;;;;;2.73;72.57;99083.44;4754292;30;20511;-83
2022/12/11 01:31:10;;;;;;;26.17;10.00;;;;;;;2.90;72.44;99079.31;4770845;30;20082;-81
2022/12/11 01:33:37;;;;;;;33.85;9.43;;;;;;;3.51;72.63;99175.94;4756305;30;20361;-82
2022/12/11 01:36:12;;;;;;;28.50;10.30;;;;;;;3.26;71.78;99144.81;4755218;30;20071;-82
2022/12/11 01:38:39;;;;;;;39.15;9.70;;;;;;;3.47;72.52;99174.16;4741157;30;20068;-83
2022/12/11 01:41:07;;;;;;;29.75;10.75;;;;;;;3.26;72.46;99141.41;4756658;30;20132;-82
2022/12/11 01:43:33;;;;;;;38.53;10.27;;;;;;;3.04;72.39;99099.16;4755462;30;20091;-84
2022/12/11 01:45:59;;;;;;;38.58;11.32;;;;;;;3.41;71.60;99166.41;4742023;30;20044;-83
2022/12/11 01:48:31;;;;;;;55.00;10.18;;;;;;;3.19;71.59;99148.19;4756579;30;20055;-84
2022/12/11 01:51:00;;;;;;;83.38;12.48;;;;;;;3.02;71.00;99127.44;4755957;30;20430;-82
2022/12/11 01:53:33;;;;;;;29.90;10.35;;;;;;;2.69;71.71;99092.78;4726211;30;20048;-82
2022/12/11 01:56:00;;;;;;;29.73;9.80;;;;;;;3.06;71.85;99128.31;4755520;30;20435;-83
2022/12/11 01:58:32;;;;;;;33.95;9.45;;;;;;;2.67;71.34;99045.66;4756434;30;20048;-82
2022/12/11 02:01:00;;;;;;;34.65;10.07;;;;;;;3.43;71.95;99151.84;4755976;30;20151;-83
2022/12/11 02:03:27;;;;;;;37.38;9.95;;;;;;;3.28;71.48;99121.72;4756496;30;20141;-82
2022/12/11 02:05:53;;;;;;;34.40;9.45;;;;;;;3.17;71.79;99127.59;4756117;30;20044;-80
2022/12/11 02:08:20;;;;;;;29.02;9.45;;;;;;;2.90;71.88;99073.31;4741638;30;20055;-83
2022/12/11 02:11:00;;;;;;;91.40;12.52;;;;;;;3.51;71.43;99191.38;4778866;30;20035;-80
2022/12/11 02:13:41;;;;;;;30.65;9.40;;;;;;;3.40;71.65;99165.53;4792939;30;20079;-81
2022/12/11 02:16:28;;;;;;;58.05;11.65;;;;;;;3.14;72.11;99119.84;4792136;30;20069;-82
2022/12/11 02:19:06;;;;;;;44.83;11.20;;;;;;;3.10;71.63;99112.09;4777001;30;20080;-82
2022/12/11 02:21:50;;;;;;;40.80;11.32;;;;;;;3.33;71.54;99142.31;4793542;30;20035;-79
2022/12/11 02:24:34;;;;;;;48.60;11.52;;;;;;;3.31;71.18;99140.59;4760960;30;20047;-81
2022/12/11 02:27:18;;;;;;;66.68;12.25;;;;;;;3.54;71.83;99169.94;4776943;30;20079;-81
2022/12/11 02:30:04;;;;;;;63.20;11.73;;;;;;;2.89;71.38;99082.75;4784307;30;20090;-82
2022/12/11 02:32:36;;;;;;;42.95;10.95;;;;;;;3.59;71.52;99201.72;4767817;30;20162;-83
2022/12/11 02:35:14;;;;;;;72.95;12.73;;;;;;;3.57;71.29;99213.72;4777039;30;20077;-82
2022/12/11 02:37:44;;;;;;;44.05;12.70;;;;;;;3.36;71.25;99188.66;4777170;30;20056;-83
2022/12/11 02:40:13;;;;;;;56.55;11.27;;;;;;;3.40;71.58;99172.41;4777506;30;20059;-80
2022/12/11 02:42:42;;;;;;;65.28;11.93;;;;;;;3.37;71.17;99173.22;4793415;30;20055;-84
2022/12/11 02:45:10;;;;;;;54.85;11.43;;;;;;;3.66;71.84;99212.94;4793004;30;20050;-78
2022/12/11 02:47:38;;;;;;;134.93;14.55;;;;;;;3.52;71.65;99198.25;4765443;30;20036;-81
2022/12/11 02:50:09;;;;;;;65.72;12.55;;;;;;;3.38;71.15;99185.22;4761958;30;20055;-81
2022/12/11 02:52:37;;;;;;;48.05;12.15;;;;;;;3.43;71.21;99188.72;4775729;30;20440;-81
2022/12/11 02:55:06;;;;;;;50.65;12.07;;;;;;;3.30;71.50;99161.16;4778649;30;20051;-81
2022/12/11 02:57:45;;;;;;;84.00;12.20;;;;;;;2.36;71.12;98999.94;4776883;30;20056;-81
2022/12/11 03:00:12;;;;;;;52.83;11.30;;;;;;;2.45;71.50;99030.00;4761946;30;20051;-81
2022/12/11 03:02:39;;;;;;;44.58;11.50;;;;;;;3.77;71.52;99243.09;4776732;30;20113;-80
2022/12/11 03:05:09;;;;;;;82.60;12.10;;;;;;;3.16;70.86;99132.72;4779808;30;20036;-82
2022/12/11 03:07:38;;;;;;;68.60;11.48;;;;;;;3.77;71.35;99245.66;4776266;30;20079;-82
2022/12/11 03:10:07;;;;;;;86.00;11.57;;;;;;;3.53;71.70;99204.25;4791962;30;20039;-81
2022/12/11 03:12:38;;;;;;;42.13;9.77;;;;;;;3.75;70.95;99252.50;4792899;30;20051;-80
2022/12/11 03:15:08;;;;;;;130.93;12.43;;;;;;;3.72;71.31;99254.19;4790848;30;20047;-83
2022/12/11 03:17:43;;;;;;;56.08;10.13;;;;;;;3.74;71.58;99250.81;4790026;30;20067;-81
2022/12/11 03:20:26;;;;;;;80.55;10.68;;;;;;;3.81;71.54;99256.88;4790766;30;20099;-81
2022/12/11 03:23:03;;;;;;;56.83;9.27;;;;;;;3.45;71.56;99224.75;4791565;30;20047;-82
2022/12/11 03:25:42;;;;;;;89.15;9.75;;;;;;;3.61;71.59;99248.94;4777840;30;20042;-81
2022/12/11 03:28:24;;;;;;;75.50;8.73;;;;;;;3.53;70.98;99225.69;4793594;30;20031;-81
2022/12/11 03:30:52;;;;;;;72.47;10.50;;;;;;;3.37;71.38;99210.94;4792534;30;20028;-81
2022/12/11 03:33:28;;;;;;;61.80;9.35;;;;;;;2.89;71.32;99136.72;4779622;30;20048;-82
2022/12/11 03:36:00;;;;;;;70.50;9.30;;;;;;;3.75;70.93;99272.25;4774577;30;20107;-81
2022/12/11 03:38:36;;;;;;;79.18;9.20;;;;;;;3.69;71.48;99269.59;4787477;30;20052;-82
2022/12/11 03:41:04;;;;;;;87.10;10.43;;;;;;;3.16;71.52;99185.00;4766224;30;20059;-83
2022/12/11 03:43:31;;;;;;;54.95;9.93;;;;;;;3.72;71.97;99282.50;4788690;30;20060;-81
2022/12/11 03:45:59;;;;;;;74.88;10.27;;;;;;;3.71;71.59;99273.94;4763132;30;20052;-82
2022/12/11 03:48:31;;;;;;;163.18;12.15;;;;;;;2.91;70.83;99149.56;4793448;30;20087;-81
2022/12/11 03:51:00;;;;;;;71.93;9.07;;;;;;;2.95;71.28;99162.50;4777682;30;20070;-82
2022/12/11 03:53:27;;;;;;;89.45;10.70;;;;;;;3.04;71.30;99178.84;4793975;30;20031;-81
2022/12/11 03:55:57;;;;;;;69.50;9.30;;;;;;;2.95;71.21;99172.78;4793592;30;20095;-85
2022/12/11 03:58:24;;;;;;;90.45;12.68;;;;;;;3.62;71.71;99291.81;4793427;30;20063;-82
2022/12/11 04:00:53;;;;;;;120.30;10.25;;;;;;;3.43;72.03;99244.44;4768823;30;20184;-82
2022/12/11 04:03:19;;;;;;;112.80;11.52;;;;;;;3.33;71.56;99227.19;4775632;30;20078;-80
2022/12/11 04:05:50;;;;;;;98.90;10.52;;;;;;;3.27;71.45;99233.13;4774154;30;20109;-82
2022/12/11 04:08:19;;;;;;;166.88;12.68;;;;;;;3.54;71.28;99278.88;4743708;30;20047;-82
2022/12/11 04:10:47;;;;;;;129.55;11.48;;;;;;;3.49;71.26;99285.69;4758373;30;20056;-81
2022/12/11 04:13:13;;;;;;;76.93;8.52;;;;;;;3.29;71.74;99265.72;4755390;30;20526;-83
2022/12/11 04:15:40;;;;;;;132.40;10.63;;;;;;;3.00;70.59;99240.50;4756128;30;20056;-81
2022/12/11 04:26:24;;;;;;;169.02;12.88;;;;;;;3.57;72.15;99299.50;4746553;30;20040;-80
2022/12/11 04:28:50;;;;;;;88.72;9.80;;;;;;;3.20;71.19;99250.16;4758240;30;20048;-84
2022/12/11 04:31:19;;;;;;;68.97;10.15;;;;;;;2.86;71.53;99182.94;4771164;30;20107;-83
2022/12/11 04:33:46;;;;;;;62.55;9.82;;;;;;;3.45;71.28;99312.19;4755061;30;20044;-82
2022/12/11 04:36:12;;;;;;;95.28;11.90;;;;;;;3.33;71.60;99307.78;4737935;30;20045;-83
2022/12/11 04:38:40;;;;;;;76.55;11.20;;;;;;;3.41;71.65;99313.03;4753541;30;20048;-83
2022/12/11 04:41:11;;;;;;;86.35;12.40;;;;;;;2.99;71.58;99231.06;4754220;30;20102;-80
2022/12/11 04:43:38;;;;;;;122.53;13.57;;;;;;;3.22;71.12;99291.34;4745970;30;20048;-79
2022/12/11 04:46:09;;;;;;;68.38;11.60;;;;;;;2.77;71.11;99209.38;4763552;30;20515;-79
2022/12/11 04:48:37;;;;;;;178.77;16.63;;;;;;;3.40;70.52;99330.16;4763108;30;20070;-81
2022/12/11 04:51:05;;;;;;;136.63;15.25;;;;;;;3.39;71.61;99320.72;4743784;30;20051;-82
2022/12/11 04:53:35;;;;;;;79.93;14.02;;;;;;;2.78;71.66;99238.50;4737301;30;20052;-81
2022/12/11 04:56:04;;;;;;;62.78;11.93;;;;;;;2.80;71.53;99234.25;4738240;30;20052;-82
2022/12/11 04:58:31;;;;;;;72.93;11.02;;;;;;;2.93;71.83;99253.25;4753867;30;20071;-82
2022/12/11 05:00:57;;;;;;;60.58;11.93;;;;;;;3.23;71.19;99335.06;4740393;30;20044;-83
2022/12/11 05:03:23;;;;;;;63.50;11.82;;;;;;;3.22;71.31;99317.06;4757937;30;20055;-82
2022/12/11 05:05:52;;;;;;;102.53;12.82;;;;;;;3.05;71.74;99281.72;4757056;30;20084;-84
2022/12/11 05:08:20;;;;;;;81.43;11.13;;;;;;;3.16;71.76;99280.13;4771898;30;20044;-81
2022/12/11 05:11:01;;;;;;;70.30;11.00;;;;;;;3.08;71.58;99273.16;4783974;30;20048;-82
2022/12/11 05:13:28;;;;;;;169.07;14.27;;;;;;;2.89;71.10;99265.22;4761873;30;20159;-83
2022/12/11 05:15:54;;;;;;;68.40;10.35;;;;;;;3.38;72.04;99331.84;4759545;30;20043;-81
2022/12/11 05:18:22;;;;;;;140.93;14.93;;;;;;;2.85;71.33;99256.63;4772242;30;20064;-83
2022/12/11 05:21:02;;;;;;;72.32;10.65;;;;;;;3.03;71.17;99311.69;4758059;30;20063;-81
2022/12/11 05:23:29;;;;;;;78.82;11.70;;;;;;;3.07;71.28;99336.59;4773828;29;20051;-81
2022/12/11 05:26:01;;;;;;;44.47;9.55;;;;;;;2.77;71.71;99283.91;4776791;30;20040;-82
2022/12/11 05:28:29;;;;;;;;;;;;;;;3.11;71.88;99351.19;4777893;30;20043;-82
2022/12/11 05:31:03;;;;;;;83.20;11.30;;;;;;;2.63;71.62;99260.56;4776628;30;19922;-83
2022/12/11 05:33:33;;;;;;;49.53;10.40;;;;;;;2.58;72.25;99257.06;4755424;30;20048;-83
2022/12/11 05:36:00;;;;;;;87.70;11.23;;;;;;;3.00;71.56;99325.34;4740744;30;20403;-82
2022/12/11 05:38:26;;;;;;;79.90;11.85;;;;;;;3.18;71.99;99354.75;4771490;30;20079;-82
2022/12/11 05:41:00;;;;;;;56.40;10.50;;;;;;;3.12;72.45;99341.78;4755985;30;20485;-82
2022/12/11 05:43:28;;;;;;;54.97;10.38;;;;;;;3.25;71.30;99353.97;4756517;30;20051;-81
2022/12/11 05:45:54;;;;;;;44.13;9.93;;;;;;;2.67;71.83;99282.03;4770975;30;20040;-83
2022/12/11 05:48:21;;;;;;;63.33;11.13;;;;;;;2.67;71.89;99287.16;4769996;30;20510;-82
2022/12/11 05:51:01;;;;;;;43.50;10.07;;;;;;;2.82;71.14;99318.25;4770621;30;20518;-85
2022/12/11 05:53:28;;;;;;;64.95;10.85;;;;;;;2.82;70.17;99325.97;4772046;30;20074;-84
2022/12/11 05:56:10;;;;;;;35.80;10.05;;;;;;;2.23;71.16;99239.41;4771773;30;20527;-84
2022/12/11 05:58:43;;;;;;;41.30;9.38;;;;;;;2.93;71.36;99356.97;4758019;30;20054;-82
2022/12/11 06:01:22;;;;;;;45.65;8.70;;;;;;;2.30;71.10;99281.47;4776528;30;20051;-81
2022/12/11 06:03:56;;;;;;;24.88;7.22;;;;;;;2.34;71.51;99270.41;4764883;30;20059;-83
2022/12/11 06:06:28;;;;;;;43.42;8.25;;;;;;;2.74;70.91;99327.53;4773039;30;20063;-84
2022/12/11 06:08:59;;;;;;;28.10;7.88;;;;;;;3.11;71.38;99399.19;4773546;30;20142;-84
2022/12/11 06:11:28;;;;;;;28.95;7.50;;;;;;;2.94;70.67;99401.50;4758758;30;20091;-83
2022/12/11 06:13:55;;;;;;;41.20;8.20;;;;;;;2.07;70.81;99280.25;4759869;30;20048;-85
2022/12/11 06:16:22;;;;;;;21.55;8.05;;;;;;;2.07;70.91;99272.56;4774733;30;20044;-83
2022/12/11 06:18:54;;;;;;;19.73;7.70;;;;;;;3.17;71.54;99461.88;4765563;30;20051;-84
2022/12/11 06:21:31;;;;;;;17.58;7.70;;;;;;;2.74;71.00;99401.19;4745101;30;20585;-84
2022/12/11 06:24:10;;;;;;;22.08;8.43;;;;;;;1.86;71.31;99229.41;4746934;30;20044;-87
2022/12/11 06:27:26;;;;;;;21.30;7.97;;;;;;;3.30;71.66;99460.34;4762176;30;20150;-87
2022/12/11 06:34:39;;;;;;;21.15;7.28;;;;;;;2.53;71.21;99334.06;4689352;30;20101;-84
2022/12/11 06:58:19;;;;;;;17.95;7.25;;;;;;;1.66;70.17;99254.69;4698062;30;20109;-86
2022/12/11 07:01:40;;;;;;;14.50;7.13;;;;;;;2.26;70.07;99360.16;4691330;30;20167;-88
2022/12/11 07:04:17;;;;;;;17.25;7.45;;;;;;;2.23;70.21;99349.81;4603289;30;20058;-84
2022/12/11 07:06:46;;;;;;;23.90;8.80;;;;;;;2.95;70.53;99455.53;4651155;30;20057;-82
2022/12/11 07:09:12;;;;;;;18.67;8.13;;;;;;;3.19;70.50;99503.06;4673255;30;20046;-83
2022/12/11 07:11:38;;;;;;;18.45;7.47;;;;;;;2.84;70.12;99418.50;4672836;30;20050;-84
2022/12/11 07:14:07;;;;;;;15.18;7.30;;;;;;;3.05;69.69;99458.22;4682986;30;20057;-85
2022/12/11 07:16:33;;;;;;;14.45;7.53;;;;;;;2.83;70.18;99406.47;4669039;30;20046;-82
2022/12/11 07:19:00;;;;;;;16.50;8.18;;;;;;;2.52;69.73;99362.31;4683534;30;20126;-84
2022/12/11 07:21:26;;;;;;;14.15;7.97;;;;;;;2.38;69.50;99337.25;4723047;30;20092;-84
2022/12/11 07:23:55;;;;;;;20.13;8.85;;;;;;;3.11;69.66;99478.91;4721904;30;20049;-86
2022/12/11 07:26:27;;;;;;;;;;;;;;;3.24;69.42;99498.81;4720756;30;20080;-84
2022/12/11 07:28:59;;;;;;;15.77;7.60;;;;;;;2.79;68.74;99432.97;4720949;30;19948;-85
2022/12/11 07:31:29;;;;;;;17.38;8.25;;;;;;;2.94;70.04;99468.34;4722464;30;20095;-85
2022/12/11 07:34:04;;;;;;;19.02;8.02;;;;;;;2.48;69.61;99394.75;4721603;30;20049;-86
2022/12/11 07:36:33;;;;;;;19.45;8.20;;;;;;;2.20;68.43;99357.47;4720761;30;20049;-81
2022/12/11 07:39:00;;;;;;;20.08;8.55;;;;;;;3.23;70.21;99520.25;4722679;30;20049;-86
2022/12/11 07:41:30;;;;;;;19.50;9.30;;;;;;;3.03;69.97;99473.66;4724158;30;20045;-84
2022/12/11 07:44:19;;;;;;;15.75;7.80;;;;;;;2.48;69.50;99374.22;4710705;30;20041;-85
2022/12/11 07:46:55;;;;;;;16.58;8.15;;;;;;;2.36;68.41;99374.88;4705381;30;20057;-83
2022/12/11 07:49:25;;;;;;;17.55;8.05;;;;;;;2.03;69.41;99326.34;4707151;30;20040;-84
2022/12/11 07:51:51;;;;;;;16.58;7.88;;;;;;;2.24;69.63;99349.00;4721580;30;20515;-82
2022/12/11 07:54:17;;;;;;;15.55;7.68;;;;;;;2.57;69.20;99399.19;4709201;30;20140;-82
2022/12/11 07:56:44;;;;;;;14.07;7.38;;;;;;;2.84;68.83;99428.75;4722699;30;20053;-86
2022/12/11 07:59:15;;;;;;;19.88;9.23;;;;;;;3.37;68.65;99511.91;4706992;30;20052;-84
2022/12/11 08:02:00;;;;;;;18.98;7.97;;;;;;;2.16;69.30;99307.78;4723577;30;20128;-85
2022/12/11 08:04:35;;;;;;;15.18;8.13;;;;;;;3.39;69.36;99507.66;4709418;30;20060;-83
2022/12/11 08:07:02;;;;;;;15.95;8.00;;;;;;;2.98;68.55;99440.13;4714580;30;20041;-82
2022/12/11 08:09:34;;;;;;;16.35;8.50;;;;;;;2.67;69.21;99390.81;4712528;30;20040;-84
2022/12/11 08:12:04;;;;;;;18.25;8.95;;;;;;;3.12;68.60;99485.78;4710635;30;20148;-85
2022/12/11 08:19:19;;;;;;;19.02;8.77;;;;;;;2.78;67.59;99428.66;4703893;30;20068;-85
2022/12/11 08:21:46;;;;;;;17.92;8.35;;;;;;;2.81;68.70;99473.28;4694449;30;20496;-84
2022/12/11 08:24:19;;;;;;;20.13;9.32;;;;;;;3.13;68.27;99492.66;4712080;30;20041;-84
2022/12/11 08:26:50;;;;;;;19.65;9.52;;;;;;;3.41;68.17;99539.41;4726548;30;20060;-83
2022/12/11 08:29:16;;;;;;;18.02;9.45;;;;;;;2.51;67.98;99388.84;4716738;30;20037;-82
2022/12/11 08:31:48;;;;;;;17.05;8.30;;;;;;;2.65;68.01;99414.75;4737482;30;20141;-84
2022/12/11 08:34:18;;;;;;;18.10;8.63;;;;;;;2.59;68.18;99400.09;4702073;30;20045;-82
2022/12/11 08:36:44;;;;;;;15.15;8.18;;;;;;;3.05;68.59;99453.09;4715729;30;20053;-81
2022/12/11 08:39:10;;;;;;;16.05;7.75;;;;;;;2.88;68.28;99424.53;4719486;30;20124;-81
2022/12/11 08:41:40;;;;;;;17.88;8.38;;;;;;;3.30;68.24;99493.78;4721058;30;20108;-80
2022/12/11 08:44:10;;;;;;;16.05;8.15;;;;;;;2.90;68.13;99446.88;4731485;30;20105;-80
2022/12/11 08:46:37;;;;;;;17.27;7.82;;;;;;;2.18;67.86;99338.59;4728449;30;20436;-83
2022/12/11 08:49:11;;;;;;;18.33;7.68;;;;;;;2.53;67.67;99402.56;4714964;30;20049;-83
2022/12/11 08:51:41;;;;;;;15.60;7.95;;;;;;;3.12;67.55;99501.22;4723217;30;20145;-83
2022/12/11 08:54:11;;;;;;;17.52;7.65;;;;;;;2.11;67.29;99361.59;4711536;30;20551;-82
2022/12/11 08:56:42;;;;;;;11.85;7.78;;;;;;;2.24;67.79;99374.66;4726360;30;20053;-83
2022/12/11 08:59:08;;;;;;;14.27;8.05;;;;;;;2.19;67.63;99378.84;4715222;30;20074;-82
2022/12/11 09:01:36;;;;;;;19.15;9.38;;;;;;;2.67;67.45;99452.47;4714109;30;20060;-81
2022/12/11 09:04:13;;;;;;;15.13;8.38;;;;;;;3.44;67.55;99614.03;4711126;30;20543;-85
2022/12/11 09:06:39;;;;;;;17.25;8.38;;;;;;;3.49;67.31;99611.56;4725568;30;20052;-82
2022/12/11 09:09:09;;;;;;;16.02;8.32;;;;;;;3.54;67.76;99602.19;4713470;30;20535;-82
2022/12/11 09:11:40;;;;;;;22.35;9.80;;;;;;;3.46;67.29;99614.94;4731631;30;20130;-85
2022/12/11 09:14:21;;;;;;;20.23;9.32;;;;;;;3.49;67.50;99598.69;4746892;30;20044;-85
2022/12/11 09:16:48;;;;;;;18.40;9.63;;;;;;;3.00;66.93;99533.56;4763083;30;20119;-83
2022/12/11 09:19:16;;;;;;;19.50;9.85;;;;;;;2.22;67.32;99390.03;4742063;30;20036;-83
2022/12/11 09:21:47;;;;;;;22.80;10.50;;;;;;;2.65;67.46;99467.00;4757879;30;20093;-84
2022/12/11 09:24:14;;;;;;;20.40;10.18;;;;;;;2.62;67.17;99463.53;4765640;30;20067;-82
2022/12/11 09:26:44;;;;;;;18.40;9.43;;;;;;;2.64;67.04;99467.00;4750713;30;20072;-84
2022/12/11 09:29:11;;;;;;;16.88;8.25;;;;;;;3.26;66.42;99573.44;4746620;30;20129;-83
2022/12/11 09:31:45;;;;;;;17.90;7.90;;;;;;;2.14;66.56;99383.00;4739216;30;20056;-85
2022/12/11 09:34:14;;;;;;;15.55;7.82;;;;;;;3.38;66.72;99607.09;4714994;30;20055;-84
2022/12/11 09:36:43;;;;;;;14.35;6.85;;;;;;;3.22;66.28;99580.22;4724739;30;20058;-83
2022/12/11 09:39:15;;;;;;;16.02;6.97;;;;;;;3.24;65.53;99622.28;4704213;30;20124;-85
2022/12/11 09:42:02;;;;;;;12.23;6.72;;;;;;;3.00;65.99;99584.97;4724835;30;20076;-84
2022/12/11 09:44:38;;;;;;;15.18;7.53;;;;;;;2.89;66.66;99557.34;4716783;30;20049;-82
2022/12/11 09:47:35;;;;;;;15.65;7.53;;;;;;;2.81;66.41;99540.09;4720618;30;20052;-84
2022/12/11 09:50:39;;;;;;;12.25;6.55;;;;;;;3.00;67.12;99561.00;4713675;30;20045;-86
2022/12/11 09:53:44;;;;;;;10.68;6.18;;;;;;;2.40;66.40;99456.28;4696103;30;20066;-83
2022/12/11 09:56:21;;;;;;;14.02;7.40;;;;;;;3.37;66.54;99617.38;4694195;30;20049;-84
2022/12/11 09:58:50;;;;;;;14.48;6.95;;;;;;;3.45;66.29;99605.47;4708522;30;20056;-82
2022/12/11 10:01:37;;;;;;;14.55;6.93;;;;;;;2.21;65.80;99425.94;4711400;30;20072;-82
2022/12/11 10:04:30;;;;;;;13.75;7.72;;;;;;;2.61;67.08;99478.06;4695323;30;20053;-84
2022/12/11 10:07:46;;;;;;;13.93;7.28;;;;;;;2.96;66.52;99556.63;4694130;30;20520;-85
2022/12/11 10:10:49;;;;;;;16.73;8.23;;;;;;;3.46;66.42;99612.34;4709321;30;20076;-83
2022/12/11 10:13:47;;;;;;;14.30;7.35;;;;;;;3.00;65.70;99564.41;4722211;30;20053;-86
2022/12/11 10:21:24;;;;;;;16.08;8.77;;;;;;;2.82;66.37;99557.25;4717646;30;20081;-81
2022/12/11 10:30:16;;;;;;;16.27;7.55;;;;;;;2.79;64.88;99520.34;4710652;30;20068;-83
2022/12/11 10:33:20;;;;;;;14.03;7.80;;;;;;;3.33;65.86;99620.72;4706044;30;20583;-84
2022/12/11 10:36:57;;;;;;;17.20;8.40;;;;;;;1.94;66.59;99402.34;4711212;30;20119;-87
2022/12/11 10:40:02;;;;;;;17.10;8.85;;;;;;;3.14;65.80;99574.94;4710837;30;20092;-86
2022/12/11 10:51:33;;;;;;;15.45;7.50;;;;;;;1.72;65.23;99375.38;4709863;30;20054;-84
2022/12/11 10:55:02;;;;;;;;;;;;;;;;;;;;;
2022/12/11 10:57:59;;;;;;;17.55;8.25;;;;;;;2.65;65.64;99541.50;4707575;30;20084;-82
2022/12/11 11:04:59;;;;;;;15.82;7.90;;;;;;;2.42;66.49;99494.84;4711485;30;20080;-83
2022/12/11 11:07:48;;;;;;;14.25;7.43;;;;;;;1.83;65.67;99400.41;4708674;30;20144;-83
2022/12/11 11:10:17;;;;;;;15.65;8.10;;;;;;;2.23;65.66;99455.09;4734428;30;20057;-83
2022/12/11 11:13:22;;;;;;;14.90;8.02;;;;;;;2.27;65.65;99438.91;4742876;30;20045;-84
2022/12/11 11:16:14;;;;;;;12.23;7.30;;;;;;;2.13;65.12;99436.06;4714351;30;20120;-82
2022/12/11 11:18:56;;;;;;;14.43;7.55;;;;;;;1.84;65.79;99356.81;4726971;30;20061;-83
2022/12/11 11:21:40;;;;;;;13.30;7.05;;;;;;;1.89;65.33;99397.94;4726952;30;20053;-84
2022/12/11 11:24:39;;;;;;;12.27;6.75;;;;;;;1.48;65.71;99338.13;4721503;30;20049;-83
2022/12/11 11:27:36;;;;;;;14.43;7.03;;;;;;;2.78;65.83;99532.34;4734432;30;20045;-83
2022/12/11 11:30:35;;;;;;;11.95;6.70;;;;;;;2.58;65.41;99495.97;4709012;30;20049;-82
2022/12/11 11:33:59;;;;;;;13.57;6.97;;;;;;;3.14;65.67;99592.09;4719486;30;20107;-82
2022/12/11 11:43:06;;;;;;;14.20;6.95;;;;;;;1.78;65.85;99420.81;4653964;30;20123;-85
2022/12/11 11:50:28;;;;;;;12.90;6.53;;;;;;;2.89;66.00;99554.78;4687744;30;20057;-85
2022/12/11 11:54:24;;;;;;;13.43;7.05;;;;;;;1.69;66.26;99392.44;4635273;30;20532;-83
2022/12/11 11:58:26;;;;;;;14.25;7.55;;;;;;;2.98;65.94;99604.66;4645171;30;20118;-85
2022/12/11 12:01:34;;;;;;;12.52;7.18;;;;;;;2.06;65.63;99494.13;4641253;30;20061;-84
2022/12/11 12:04:58;;;;;;;11.80;6.43;;;;;;;2.04;66.20;99469.25;4651177;30;20054;-82
2022/12/11 12:12:18;;;;;;;12.90;6.55;;;;;;;2.93;66.50;99621.72;4700099;30;20053;-83
2022/12/11 12:20:30;;;;;;;11.20;6.10;;;;;;;2.99;66.63;99634.66;4697981;30;20059;-85
2022/12/11 12:23:54;;;;;;;12.63;6.57;;;;;;;2.82;66.54;99631.78;4709990;30;20051;-84
2022/12/11 12:27:44;;;;;;;11.45;6.05;;;;;;;2.73;66.62;99651.28;4695744;30;20529;-83
2022/12/11 12:31:21;;;;;;;11.93;5.93;;;;;;;2.79;67.17;99634.28;4684158;30;20548;-87
2022/12/11 12:34:33;;;;;;;11.63;5.38;;;;;;;2.16;66.57;99532.81;4700664;30;20049;-84
2022/12/11 12:37:44;;;;;;;10.07;5.82;;;;;;;2.54;66.55;99627.75;4695679;30;20084;-82
2022/12/11 12:41:02;;;;;;;11.05;5.93;;;;;;;0.91;67.07;99388.16;4699647;30;20049;-84
2022/12/11 12:43:43;;;;;;;10.32;6.50;;;;;;;2.26;67.31;99601.53;4715088;30;20137;-84
2022/12/11 12:46:35;;;;;;;10.30;6.25;;;;;;;2.14;67.55;99585.81;4728939;30;20045;-83
2022/12/11 12:49:40;;;;;;;10.18;5.90;;;;;;;1.79;67.62;99515.81;4735053;30;20130;-82
2022/12/11 12:52:48;;;;;;;10.15;5.80;;;;;;;1.76;67.30;99478.97;4742065;30;20111;-82
2022/12/11 12:55:21;;;;;;;10.15;5.47;;;;;;;2.58;66.92;99615.88;4706356;30;20057;-82
2022/12/11 12:58:25;;;;;;;10.57;5.88;;;;;;;2.62;67.85;99613.38;4708314;30;20049;-84
2022/12/11 13:01:30;;;;;;;9.50;5.60;;;;;;;2.64;67.47;99610.88;4706428;30;20053;-83
2022/12/11 13:07:31;;;;;;;10.20;5.78;;;;;;;1.75;67.40;99466.97;4708317;30;20116;-83
2022/12/11 13:10:27;;;;;;;10.73;5.88;;;;;;;2.68;67.92;99620.34;4735318;30;20048;-82
2022/12/11 13:12:57;;;;;;;10.07;5.47;;;;;;;1.75;66.51;99482.34;4720493;30;20708;-81
2022/12/11 13:15:45;;;;;;;12.23;6.05;;;;;;;2.19;68.04;99559.44;4720520;30;20335;-84
2022/12/11 13:18:32;;;;;;;10.10;6.00;;;;;;;2.46;67.91;99616.47;4707430;30;20064;-85
2022/12/11 13:21:53;;;;;;;11.57;6.03;;;;;;;2.39;67.52;99616.34;4688424;30;20473;-84
2022/12/11 13:24:47;;;;;;;9.45;5.45;;;;;;;1.03;68.25;99380.78;4690207;30;20053;-83
2022/12/11 13:27:41;;;;;;;8.75;5.00;;;;;;;1.67;67.09;99514.66;4707766;30;20060;-83
2022/12/11 13:30:14;;;;;;;15.70;8.40;;;;;;;1.97;68.38;99555.53;4735174;30;20037;-81
2022/12/11 13:36:52;;;;;;;12.90;7.10;;;;;;;2.22;68.50;99568.91;4704672;30;20049;-84
2022/12/11 13:39:36;;;;;;;13.13;7.55;;;;;;;1.20;67.27;99428.97;4706998;30;20060;-82
2022/12/11 13:42:37;;;;;;;12.45;7.22;;;;;;;2.11;68.76;99561.81;4709505;30;20055;-82
2022/12/11 13:46:03;;;;;;;11.13;6.65;;;;;;;1.90;69.13;99512.59;4707821;30;20061;-84
2022/12/11 13:49:03;;;;;;;12.15;5.90;;;;;;;2.29;68.68;99562.19;4700959;30;20585;-82
2022/12/11 13:51:37;;;;;;;9.00;5.57;;;;;;;0.74;69.00;99308.38;4692147;30;20466;-83
2022/12/11 13:54:18;;;;;;;11.48;6.07;;;;;;;0.87;69.22;99309.53;4657544;30;20053;-82